Time;durP1;ratioP1;P1;durP2;ratioP2;P2;SDS_P1;SDS_P2;PMS_P1;PMS_P2;Temp;Humidity;BMP_temperature;BMP_pressure;BME280_temperature;BME280_humidity;BME280_pressure;Samples;Min_cycle;Max_cycle;Signal;HPM_P1;HPM_P2
2023/06/01 00:01:32;;;;;;;5.37;3.13;;;;;;;15.56;54.57;98242.47;5070668;28;20204;-78
2023/06/01 00:03:59;;;;;;;6.07;3.07;;;;;;;15.57;54.41;98254.84;5071287;28;20222;-78
2023/06/01 00:06:28;;;;;;;4.67;2.83;;;;;;;15.61;54.35;98240.25;5071168;28;20306;-78
2023/06/01 00:08:56;;;;;;;5.67;3.00;;;;;;;15.58;54.71;98243.19;5071122;28;20207;-77
2023/06/01 00:11:23;;;;;;;4.27;2.87;;;;;;;15.52;55.09;98236.56;5070451;28;20246;-77
2023/06/01 00:13:50;;;;;;;3.03;2.73;;;;;;;15.52;55.38;98251.72;5071080;28;20218;-77
2023/06/01 00:16:17;;;;;;;4.23;2.70;;;;;;;15.49;55.68;98251.97;5070602;28;20337;-78
2023/06/01 00:18:44;;;;;;;4.63;3.07;;;;;;;15.46;56.23;98258.41;5071157;28;20207;-77
2023/06/01 00:21:11;;;;;;;4.17;2.83;;;;;;;15.47;55.98;98259.28;5070282;28;20207;-77
2023/06/01 00:23:40;;;;;;;3.77;2.70;;;;;;;15.41;56.78;98260.63;5071132;28;20738;-77
2023/06/01 00:26:09;;;;;;;4.40;2.93;;;;;;;15.35;57.01;98260.34;5070846;28;20264;-77
2023/06/01 00:28:35;;;;;;;4.10;3.03;;;;;;;15.30;57.28;98266.03;5071232;28;20214;-77
2023/06/01 00:31:02;;;;;;;5.57;3.07;;;;;;;15.27;57.61;98260.13;5070268;28;20340;-77
2023/06/01 00:33:28;;;;;;;6.37;3.73;;;;;;;15.28;57.39;98253.81;5070839;28;20324;-77
2023/06/01 00:35:54;;;;;;;5.17;3.30;;;;;;;15.28;57.39;98254.66;5070639;28;20235;-77
2023/06/01 00:38:21;;;;;;;3.53;2.97;;;;;;;15.23;57.86;98256.03;5070830;28;20660;-77
2023/06/01 00:40:49;;;;;;;5.33;2.90;;;;;;;15.19;58.18;98262.56;5069985;28;20211;-77
2023/06/01 00:43:18;;;;;;;5.47;3.10;;;;;;;15.15;58.58;98266.50;5070966;28;20269;-77
2023/06/01 00:45:45;;;;;;;3.90;3.00;;;;;;;15.06;59.19;98264.59;5070659;28;20231;-77
2023/06/01 00:48:12;;;;;;;3.97;2.87;;;;;;;15.05;59.11;98270.91;5070780;28;20203;-77
2023/06/01 00:50:38;;;;;;;4.90;3.03;;;;;;;15.02;59.56;98268.53;5069802;28;20709;-77
2023/06/01 00:53:08;;;;;;;4.57;3.07;;;;;;;14.90;60.56;98275.69;5070790;28;20211;-77
2023/06/01 00:55:35;;;;;;;4.97;3.10;;;;;;;14.86;60.96;98278.75;5070577;28;20231;-77
2023/06/01 00:58:03;;;;;;;4.13;3.03;;;;;;;14.84;60.97;98262.91;5070631;28;20215;-77
2023/06/01 01:00:31;;;;;;;6.13;3.53;;;;;;;14.81;61.39;98275.63;5068469;28;20309;-77
2023/06/01 01:03:00;;;;;;;5.03;3.17;;;;;;;14.78;61.75;98276.72;5067977;28;20204;-77
2023/06/01 01:05:27;;;;;;;6.60;3.40;;;;;;;14.77;61.68;98274.19;5067844;28;20267;-77
2023/06/01 01:08:02;;;;;;;4.40;2.80;;;;;;;14.77;61.60;98274.19;5067734;28;20199;-77
2023/06/01 01:10:33;;;;;;;4.07;3.10;;;;;;;14.74;61.67;98269.16;5069674;28;20238;-77
2023/06/01 01:13:07;;;;;;;4.87;3.60;;;;;;;14.69;62.17;98272.19;5070647;28;20215;-77
2023/06/01 01:15:44;;;;;;;4.83;3.17;;;;;;;14.68;62.30;98261.69;5070396;28;20714;-77
2023/06/01 01:18:17;;;;;;;4.30;3.17;;;;;;;14.62;62.93;98270.16;5070509;28;20207;-77
2023/06/01 01:20:48;;;;;;;5.33;3.30;;;;;;;14.58;63.29;98268.72;5069733;28;20203;-77
2023/06/01 01:23:31;;;;;;;4.30;2.83;;;;;;;14.51;63.32;98263.09;5070423;28;20701;-77
2023/06/01 01:26:13;;;;;;;3.63;2.87;;;;;;;14.49;63.48;98266.84;5070452;28;20238;-77
2023/06/01 01:28:43;;;;;;;5.90;2.80;;;;;;;14.50;62.95;98265.88;5072438;28;20211;-77
2023/06/01 01:31:14;;;;;;;6.53;2.97;;;;;;;14.46;64.04;98267.06;5073092;28;20238;-77
2023/06/01 01:33:42;;;;;;;7.00;3.00;;;;;;;14.47;63.84;98269.63;5073896;28;20222;-78
2023/06/01 01:36:10;;;;;;;5.10;2.93;;;;;;;14.45;63.98;98268.91;5073746;28;20235;-77
2023/06/01 01:38:37;;;;;;;4.57;3.00;;;;;;;14.44;64.13;98261.91;5073798;28;20280;-78
2023/06/01 01:41:04;;;;;;;4.07;3.00;;;;;;;14.43;64.35;98259.38;5073024;28;20207;-77
2023/06/01 01:43:32;;;;;;;3.70;2.50;;;;;;;14.38;64.32;98261.56;5073912;28;20215;-77
2023/06/01 01:46:06;;;;;;;5.47;3.30;;;;;;;14.37;64.55;98254.56;5073780;28;20239;-77
2023/06/01 01:48:37;;;;;;;6.40;2.63;;;;;;;14.31;64.69;98255.06;5073779;28;20226;-77
2023/06/01 01:51:11;;;;;;;5.37;3.00;;;;;;;14.20;65.93;98257.75;5072890;28;20575;-77
2023/06/01 01:53:41;;;;;;;5.53;3.20;;;;;;;14.18;65.75;98259.66;5073553;28;20214;-77
2023/06/01 01:56:09;;;;;;;4.73;2.90;;;;;;;14.16;66.36;98266.91;5073757;28;20242;-77
2023/06/01 01:58:36;;;;;;;4.17;2.90;;;;;;;14.07;67.29;98267.66;5073667;28;20227;-77
2023/06/01 02:01:05;;;;;;;4.80;2.97;;;;;;;14.00;67.86;98272.59;5072798;28;20206;-77
2023/06/01 02:03:32;;;;;;;4.10;2.80;;;;;;;13.97;67.71;98266.69;5073369;28;20211;-77
2023/06/01 02:05:58;;;;;;;5.27;2.90;;;;;;;13.92;67.96;98259.09;5073284;28;20223;-77
2023/06/01 02:08:25;;;;;;;5.17;2.90;;;;;;;13.95;66.78;98264.19;5073454;28;20212;-78
2023/06/01 02:10:51;;;;;;;4.60;2.70;;;;;;;13.98;66.02;98249.78;5072601;28;20227;-77
2023/06/01 02:13:18;;;;;;;4.87;2.90;;;;;;;14.03;65.57;98250.25;5073198;28;20697;-77
2023/06/01 02:15:44;;;;;;;6.93;2.97;;;;;;;14.12;64.95;98244.22;5073113;28;20227;-77
2023/06/01 02:18:17;;;;;;;5.87;2.93;;;;;;;14.05;65.10;98243.84;5073085;28;20233;-77
2023/06/01 02:20:44;;;;;;;4.47;3.10;;;;;;;14.08;65.31;98234.78;5072233;28;20231;-77
2023/06/01 02:23:10;;;;;;;7.57;2.97;;;;;;;14.08;65.11;98234.78;5073190;28;20211;-77
2023/06/01 02:25:37;;;;;;;4.80;2.77;;;;;;;14.04;65.47;98230.69;5072749;28;20714;-76
2023/06/01 02:28:03;;;;;;;5.53;2.63;;;;;;;14.03;65.73;98236.97;5073070;28;20226;-77
2023/06/01 02:30:30;;;;;;;6.10;2.60;;;;;;;13.97;66.58;98246.28;5072100;28;20203;-77
2023/06/01 02:32:56;;;;;;;4.00;2.97;;;;;;;13.95;66.62;98242.06;5072580;28;20203;-77
2023/06/01 02:35:24;;;;;;;6.33;3.20;;;;;;;13.91;66.95;98245.94;5072468;28;20682;-77
2023/06/01 02:37:51;;;;;;;5.53;2.73;;;;;;;13.88;66.85;98247.03;5072906;28;20211;-77
2023/06/01 02:40:18;;;;;;;4.53;3.00;;;;;;;13.83;67.51;98243.06;5071566;28;20239;-77
2023/06/01 02:42:44;;;;;;;4.33;2.83;;;;;;;13.82;67.87;98257.31;5072596;28;20712;-77
2023/06/01 02:45:10;;;;;;;6.27;3.20;;;;;;;13.84;67.96;98245.59;5072545;28;20692;-77
2023/06/01 02:47:37;;;;;;;4.43;2.40;;;;;;;13.84;67.51;98244.75;5072558;28;20211;-77
2023/06/01 02:50:04;;;;;;;4.00;2.50;;;;;;;13.76;68.37;98250.66;5071726;28;20211;-77
2023/06/01 02:52:32;;;;;;;4.37;2.70;;;;;;;13.71;69.26;98257.31;5072629;28;20353;-77
2023/06/01 02:54:59;;;;;;;4.13;2.40;;;;;;;13.66;69.42;98254.19;5072526;28;20211;-77
2023/06/01 02:57:25;;;;;;;4.50;2.77;;;;;;;13.59;70.71;98255.66;5072269;28;20228;-78
2023/06/01 02:59:52;;;;;;;6.63;2.90;;;;;;;13.55;70.57;98264.81;5071545;28;20697;-77
2023/06/01 03:02:18;;;;;;;3.27;2.57;;;;;;;13.47;70.56;98259.25;5072268;28;20590;-77
2023/06/01 03:04:45;;;;;;;6.37;3.00;;;;;;;13.42;70.82;98258.78;5072120;28;20212;-76
2023/06/01 03:07:12;;;;;;;3.77;2.63;;;;;;;13.32;71.45;98260.47;5072186;28;20224;-77
2023/06/01 03:09:40;;;;;;;4.13;2.77;;;;;;;13.33;72.38;98259.50;5071566;28;20208;-76
2023/06/01 03:12:08;;;;;;;3.87;2.73;;;;;;;13.28;72.39;98256.38;5071981;28;20223;-79
2023/06/01 03:14:34;;;;;;;3.63;2.53;;;;;;;13.23;72.89;98263.84;5072033;28;20623;-77
2023/06/01 03:17:01;;;;;;;3.33;2.70;;;;;;;13.24;73.49;98257.56;5071785;28;20238;-77
2023/06/01 03:19:27;;;;;;;3.80;2.67;;;;;;;13.22;73.62;98259.50;5071379;28;20222;-77
2023/06/01 03:21:54;;;;;;;3.83;2.73;;;;;;;13.22;74.16;98267.47;5072083;28;20294;-77
2023/06/01 03:24:21;;;;;;;4.57;3.00;;;;;;;13.19;74.48;98267.69;5071995;28;20314;-77
2023/06/01 03:26:48;;;;;;;5.43;3.10;;;;;;;13.26;74.64;98274.22;5071715;28;20600;-80
2023/06/01 03:29:15;;;;;;;4.63;2.97;;;;;;;13.18;75.37;98272.16;5071031;28;20226;-77
2023/06/01 03:31:42;;;;;;;5.83;2.87;;;;;;;13.16;75.26;98270.59;5071435;28;20236;-77
2023/06/01 03:34:08;;;;;;;3.93;2.73;;;;;;;13.08;76.19;98265.03;5071557;28;20689;-77
2023/06/01 03:36:36;;;;;;;4.13;2.73;;;;;;;13.03;77.13;98277.81;5091925;22;20230;-77
2023/06/01 03:39:07;;;;;;;6.20;3.10;;;;;;;12.97;77.52;98275.63;5091633;28;20211;-78
2023/06/01 03:41:34;;;;;;;6.40;3.30;;;;;;;12.98;78.01;98274.66;5091657;28;20635;-78
2023/06/01 03:44:02;;;;;;;5.03;2.60;;;;;;;12.95;78.24;98277.53;5091685;28;20214;-77
2023/06/01 03:46:28;;;;;;;6.23;3.10;;;;;;;12.95;76.83;98274.88;5091792;28;20257;-78
2023/06/01 03:48:55;;;;;;;5.80;3.20;;;;;;;12.93;76.79;98271.47;5092128;28;20211;-78
2023/06/01 03:51:22;;;;;;;5.43;3.23;;;;;;;12.91;76.91;98268.91;5090196;28;20317;-77
2023/06/01 03:53:48;;;;;;;4.97;3.17;;;;;;;13.00;76.91;98267.41;5091931;28;20210;-78
2023/06/01 03:56:15;;;;;;;5.83;3.03;;;;;;;13.00;76.04;98273.56;5091689;28;20230;-77
2023/06/01 03:58:41;;;;;;;5.80;3.17;;;;;;;13.06;76.21;98267.78;5091493;28;20202;-78
2023/06/01 04:01:11;;;;;;;4.73;3.07;;;;;;;13.11;76.36;98270.94;5091012;28;20625;-77
2023/06/01 04:03:38;;;;;;;6.40;3.57;;;;;;;13.21;76.49;98271.09;5091666;28;20360;-78
2023/06/01 04:06:11;;;;;;;4.50;3.20;;;;;;;13.18;77.11;98273.97;5091492;28;20222;-78
2023/06/01 04:08:42;;;;;;;4.23;3.00;;;;;;;13.17;77.96;98281.09;5091539;28;20220;-78
2023/06/01 04:11:08;;;;;;;3.23;2.80;;;;;;;13.17;78.70;98283.75;5090677;28;20212;-77
2023/06/01 04:13:35;;;;;;;4.67;3.17;;;;;;;13.20;78.76;98280.00;5091588;28;20221;-78
2023/06/01 04:16:01;;;;;;;4.53;3.10;;;;;;;13.28;77.78;98277.59;5091529;28;20358;-77
2023/06/01 04:18:29;;;;;;;4.43;3.03;;;;;;;13.39;75.75;98272.31;5091739;28;20207;-78
2023/06/01 04:20:55;;;;;;;5.53;3.53;;;;;;;13.40;75.67;98274.00;5090871;28;20210;-78
2023/06/01 04:23:22;;;;;;;5.50;3.10;;;;;;;13.43;76.08;98276.38;5091578;28;20206;-78
2023/06/01 04:25:50;;;;;;;4.37;3.07;;;;;;;13.50;75.76;98282.94;5091280;28;20222;-78
2023/06/01 04:28:17;;;;;;;6.27;3.13;;;;;;;13.54;75.46;98279.91;5091433;28;20206;-77
2023/06/01 04:30:47;;;;;;;5.20;3.23;;;;;;;13.55;75.08;98276.28;5090575;28;20256;-77
2023/06/01 04:33:14;;;;;;;5.80;3.37;;;;;;;13.59;75.10;98282.19;5091345;28;20231;-77
2023/06/01 04:35:43;;;;;;;4.33;3.03;;;;;;;13.69;75.52;98283.19;5090975;28;20206;-77
2023/06/01 04:38:09;;;;;;;5.43;3.23;;;;;;;13.67;76.52;98280.63;5091085;28;20584;-77
2023/06/01 04:40:36;;;;;;;5.70;3.30;;;;;;;13.69;76.69;98288.50;5090224;28;20215;-77
2023/06/01 04:43:03;;;;;;;7.30;2.87;;;;;;;13.71;77.08;98287.41;5091424;28;20203;-77
2023/06/01 04:45:33;;;;;;;3.80;2.80;;;;;;;13.76;76.56;98284.38;5091093;28;20228;-77
2023/06/01 04:47:59;;;;;;;6.87;3.77;;;;;;;13.83;75.91;98277.59;5091273;28;20635;-77
2023/06/01 04:50:28;;;;;;;4.10;2.90;;;;;;;13.95;75.33;98273.97;5090573;28;20210;-77
2023/06/01 04:52:56;;;;;;;5.03;3.33;;;;;;;14.25;73.47;98271.50;5091132;28;20223;-77
2023/06/01 04:55:23;;;;;;;5.00;3.13;;;;;;;14.28;72.96;98271.25;5091670;28;20321;-77
2023/06/01 04:57:49;;;;;;;5.27;3.03;;;;;;;14.27;73.41;98269.56;5091383;28;20275;-77
2023/06/01 05:00:17;;;;;;;4.90;3.30;;;;;;;14.32;75.37;98283.34;5090466;28;20219;-77
2023/06/01 05:02:46;;;;;;;4.33;3.33;;;;;;;14.47;75.92;98287.38;5093829;28;20203;-77
2023/06/01 05:05:13;;;;;;;5.37;3.33;;;;;;;14.65;77.51;98302.69;5094918;28;20234;-77
2023/06/01 05:07:41;;;;;;;5.17;3.53;;;;;;;14.98;77.94;98294.53;5094985;28;20327;-76
2023/06/01 05:10:10;;;;;;;6.87;3.57;;;;;;;15.60;74.97;98282.06;5094835;28;20756;-77
2023/06/01 05:12:38;;;;;;;6.03;3.50;;;;;;;16.33;71.42;98270.06;5094967;28;20226;-77
2023/06/01 05:15:06;;;;;;;3.97;3.20;;;;;;;17.04;69.95;98269.69;5094980;28;20207;-80
2023/06/01 05:17:33;;;;;;;8.13;3.77;;;;;;;17.51;67.48;98274.13;5094985;28;20331;-78
2023/06/01 05:19:59;;;;;;;9.30;3.50;;;;;;;17.92;64.02;98252.25;5094127;28;20207;-78
2023/06/01 05:22:27;;;;;;;4.43;3.40;;;;;;;18.39;62.29;98258.34;5095039;28;20203;-75
2023/06/01 05:24:53;;;;;;;5.23;3.40;;;;;;;18.85;59.31;98234.03;5094573;28;20211;-75
2023/06/01 05:27:21;;;;;;;5.23;3.47;;;;;;;19.12;54.21;98197.25;5094555;28;20223;-76
2023/06/01 05:29:47;;;;;;;5.53;3.30;;;;;;;19.51;54.91;98206.53;5094036;28;20574;-77
2023/06/01 05:32:14;;;;;;;7.87;4.13;;;;;;;19.71;53.61;98204.47;5094588;28;20227;-78
2023/06/01 05:34:40;;;;;;;5.73;3.53;;;;;;;19.98;53.75;98210.44;5095230;28;20214;-78
2023/06/01 05:37:07;;;;;;;6.20;3.60;;;;;;;20.25;53.46;98218.25;5094413;28;20243;-80
2023/06/01 05:39:33;;;;;;;4.27;3.20;;;;;;;20.48;53.11;98213.94;5094250;28;20207;-80
2023/06/01 05:42:00;;;;;;;5.60;3.13;;;;;;;20.83;52.18;98205.59;5094362;28;20207;-79
2023/06/01 05:44:28;;;;;;;5.73;3.20;;;;;;;21.00;51.15;98196.56;5094245;28;20213;-80
2023/06/01 05:46:54;;;;;;;8.50;3.60;;;;;;;21.19;50.58;98200.72;5094210;28;20226;-76
2023/06/01 05:49:21;;;;;;;6.33;4.70;;;;;;;21.44;50.59;98195.13;5093592;28;20214;-77
2023/06/01 05:51:47;;;;;;;4.83;3.20;;;;;;;21.59;49.96;98190.69;5093664;28;20214;-76
2023/06/01 05:54:14;;;;;;;5.80;2.77;;;;;;;21.77;47.71;98175.19;5093816;28;20273;-75
2023/06/01 05:56:41;;;;;;;6.50;2.43;;;;;;;21.70;47.84;98174.22;5093573;28;20231;-80
2023/06/01 05:59:07;;;;;;;4.60;2.93;;;;;;;21.76;47.56;98184.28;5093368;28;20622;-81
2023/06/01 06:01:35;;;;;;;5.60;2.57;;;;;;;21.66;46.84;98172.88;5093440;28;20202;-78
2023/06/01 06:04:02;;;;;;;5.33;3.40;;;;;;;21.55;47.06;98180.47;5093846;28;20244;-80
2023/06/01 06:06:29;;;;;;;5.13;2.80;;;;;;;21.61;47.66;98180.63;5093511;28;20237;-80
2023/06/01 06:08:55;;;;;;;6.73;3.03;;;;;;;21.67;48.02;98188.03;5093532;28;20213;-80
2023/06/01 06:11:22;;;;;;;3.83;2.70;;;;;;;21.81;47.04;98186.44;5092616;28;20206;-80
2023/06/01 06:13:49;;;;;;;3.63;2.70;;;;;;;21.95;47.99;98202.69;5092274;28;20223;-80
2023/06/01 06:16:16;;;;;;;6.87;3.30;;;;;;;22.22;47.39;98191.47;5092988;28;20715;-81
2023/06/01 06:18:44;;;;;;;5.80;3.10;;;;;;;22.35;46.45;98185.50;5093702;28;20293;-83
2023/06/01 06:21:10;;;;;;;4.90;2.83;;;;;;;22.53;47.07;98189.63;5092789;28;20206;-85
2023/06/01 06:23:39;;;;;;;6.47;2.93;;;;;;;22.78;46.71;98196.50;5093250;28;20225;-83
2023/06/01 06:26:06;;;;;;;4.97;3.20;;;;;;;22.96;46.50;98191.63;5093322;28;20283;-84
2023/06/01 06:28:32;;;;;;;4.27;2.77;;;;;;;23.10;45.83;98188.13;5093336;28;20215;-83
2023/06/01 06:30:59;;;;;;;3.80;2.67;;;;;;;23.18;45.71;98185.41;5092608;28;20214;-84
2023/06/01 06:33:26;;;;;;;4.63;3.10;;;;;;;23.36;46.36;98202.06;5093393;28;20237;-84
2023/06/01 06:35:54;;;;;;;4.80;2.90;;;;;;;23.46;46.02;98194.53;5092908;28;20203;-82
2023/06/01 06:38:20;;;;;;;5.80;3.10;;;;;;;23.59;45.38;98193.91;5092888;28;20203;-82
2023/06/01 06:40:47;;;;;;;4.20;3.40;;;;;;;23.71;45.27;98187.03;5092347;28;20691;-81
2023/06/01 06:43:15;;;;;;;5.03;3.10;;;;;;;23.75;45.14;98186.47;5092821;28;20210;-82
2023/06/01 06:45:42;;;;;;;4.27;2.97;;;;;;;23.82;44.50;98184.69;5093232;28;20222;-89
2023/06/01 06:48:08;;;;;;;4.47;2.50;;;;;;;23.89;43.89;98184.81;5093094;28;20214;-90
2023/06/01 06:50:36;;;;;;;4.67;2.80;;;;;;;23.83;44.23;98180.94;5092066;28;20695;-89
2023/06/01 06:53:05;;;;;;;3.47;2.50;;;;;;;23.85;43.65;98175.38;5092760;28;20313;-88
2023/06/01 06:55:31;;;;;;;6.10;3.00;;;;;;;23.76;42.52;98146.78;5092823;28;20213;-89
2023/06/01 06:57:58;;;;;;;4.23;2.70;;;;;;;23.53;42.74;98157.69;5092413;28;20232;-89
2023/06/01 07:00:25;;;;;;;4.43;3.33;;;;;;;23.20;42.04;98145.59;5092065;28;20215;-89
2023/06/01 07:02:52;;;;;;;4.70;3.27;;;;;;;22.74;42.68;98149.38;5092856;28;20199;-90
2023/06/01 07:05:18;;;;;;;6.97;3.00;;;;;;;22.25;44.04;98153.41;5092228;28;20217;-90
2023/06/01 07:07:45;;;;;;;4.47;2.63;;;;;;;21.83;44.61;98171.00;5092226;28;20229;-90
2023/06/01 07:10:13;;;;;;;4.87;3.20;;;;;;;21.17;46.13;98183.94;5091509;28;20203;-90
2023/06/01 07:12:40;;;;;;;4.50;3.03;;;;;;;20.86;46.35;98178.38;5092280;28;20241;-89
2023/06/01 07:15:07;;;;;;;4.83;2.90;;;;;;;20.70;47.13;98193.66;5092567;28;20301;-89
2023/06/01 07:17:34;;;;;;;4.63;3.20;;;;;;;20.53;47.63;98191.97;5092334;28;20227;-89
2023/06/01 07:20:04;;;;;;;4.80;2.93;;;;;;;20.43;48.61;98200.19;5091585;28;20214;-89
2023/06/01 07:22:30;;;;;;;3.10;2.80;;;;;;;20.45;49.36;98206.25;5092460;28;20233;-89
2023/06/01 07:24:57;;;;;;;4.10;2.87;;;;;;;20.42;48.96;98209.25;5092085;28;20210;-88
2023/06/01 07:27:26;;;;;;;5.73;2.87;;;;;;;20.57;48.92;98202.22;5092225;28;20712;-87
2023/06/01 07:29:55;;;;;;;4.27;2.80;;;;;;;20.59;48.83;98202.91;5091527;28;20297;-91
2023/06/01 07:32:21;;;;;;;4.53;2.77;;;;;;;20.76;48.44;98199.22;5091722;28;20233;-86
2023/06/01 07:34:48;;;;;;;4.13;2.73;;;;;;;20.81;48.00;98198.72;5092146;28;20213;-86
2023/06/01 07:37:15;;;;;;;4.13;2.87;;;;;;;20.89;47.13;98183.47;5091748;28;20249;-86
2023/06/01 07:39:42;;;;;;;5.93;3.23;;;;;;;21.06;46.67;98187.81;5091525;28;20335;-83
2023/06/01 07:42:08;;;;;;;4.40;3.10;;;;;;;20.95;45.29;98161.28;5091781;28;20207;-79
2023/06/01 07:44:36;;;;;;;5.67;3.10;;;;;;;20.92;46.35;98177.72;5092197;28;20222;-79
2023/06/01 07:47:03;;;;;;;4.67;2.97;;;;;;;20.94;47.47;98197.22;5091895;28;20237;-79
2023/06/01 07:49:30;;;;;;;4.80;3.30;;;;;;;21.05;46.99;98187.97;5091203;28;20202;-79
2023/06/01 07:51:58;;;;;;;6.27;3.83;;;;;;;21.05;48.04;98199.59;5091391;28;20673;-79
2023/06/01 07:54:26;;;;;;;5.23;3.43;;;;;;;21.17;48.71;98214.34;5092248;28;20321;-79
2023/06/01 07:56:53;;;;;;;5.10;3.13;;;;;;;21.32;48.73;98212.63;5091887;28;20239;-81
2023/06/01 07:59:21;;;;;;;4.60;3.20;;;;;;;21.42;48.54;98217.81;5091099;28;20213;-79
2023/06/01 08:01:50;;;;;;;4.17;2.90;;;;;;;21.61;48.08;98203.97;5092102;28;20242;-79
2023/06/01 08:04:16;;;;;;;4.90;3.13;;;;;;;21.72;48.16;98211.72;5091847;28;20207;-80
2023/06/01 08:06:43;;;;;;;4.07;3.10;;;;;;;21.96;46.95;98190.94;5091717;28;20268;-80
2023/06/01 08:09:10;;;;;;;7.27;3.33;;;;;;;21.96;48.70;98223.25;5090855;28;20206;-80
2023/06/01 08:11:37;;;;;;;5.13;3.10;;;;;;;22.11;45.45;98180.25;5091588;28;20301;-80
2023/06/01 08:14:07;;;;;;;5.10;3.60;;;;;;;22.08;44.54;98167.16;5091633;28;20230;-80
2023/06/01 08:16:33;;;;;;;7.67;3.90;;;;;;;22.11;44.85;98167.63;5091656;28;20222;-79
2023/06/01 08:19:01;;;;;;;4.47;3.50;;;;;;;22.02;44.37;98163.31;5091463;28;20207;-80
2023/06/01 08:21:28;;;;;;;5.03;3.63;;;;;;;21.94;45.36;98166.03;5091011;28;20211;-80
2023/06/01 08:23:55;;;;;;;4.47;3.50;;;;;;;21.97;44.86;98163.00;5092019;28;20214;-79
2023/06/01 08:26:23;;;;;;;5.63;3.53;;;;;;;22.00;44.94;98165.34;5091910;28;20227;-80
2023/06/01 08:28:52;;;;;;;3.97;3.23;;;;;;;22.14;45.56;98178.03;5091570;28;20667;-79
2023/06/01 08:31:20;;;;;;;5.13;3.67;;;;;;;22.34;46.32;98187.38;5090868;28;20213;-80
2023/06/01 08:33:46;;;;;;;7.50;3.80;;;;;;;22.59;44.35;98161.97;5091389;28;20311;-80
2023/06/01 08:36:14;;;;;;;5.40;3.97;;;;;;;22.55;45.21;98174.09;5091554;28;20723;-79
2023/06/01 08:38:45;;;;;;;4.83;3.83;;;;;;;22.50;44.09;98152.25;5095863;28;20695;-79
2023/06/01 08:41:21;;;;;;;5.73;3.60;;;;;;;22.57;45.03;98163.16;5094803;28;20211;-79
2023/06/01 08:44:03;;;;;;;5.37;4.00;;;;;;;22.56;44.95;98151.53;5095856;28;20296;-79
2023/06/01 08:46:31;;;;;;;6.93;3.90;;;;;;;22.62;45.67;98166.97;5095708;28;20703;-79
2023/06/01 08:48:59;;;;;;;6.63;3.60;;;;;;;22.72;45.48;98162.19;5095332;28;20688;-79
2023/06/01 08:51:28;;;;;;;5.30;4.10;;;;;;;22.81;44.97;98160.28;5094804;28;20210;-79
2023/06/01 08:53:57;;;;;;;6.60;3.63;;;;;;;22.82;45.39;98157.41;5094913;28;20227;-80
2023/06/01 08:56:25;;;;;;;5.03;4.13;;;;;;;23.00;45.65;98171.38;5094896;28;20226;-80
2023/06/01 08:58:52;;;;;;;4.23;3.83;;;;;;;23.21;45.31;98170.69;5095087;28;20219;-80
2023/06/01 09:01:21;;;;;;;5.87;3.83;;;;;;;23.20;43.92;98145.59;5094406;28;20206;-80
2023/06/01 09:03:48;;;;;;;5.00;3.70;;;;;;;23.22;46.29;98177.78;5095114;28;20350;-80
2023/06/01 09:06:15;;;;;;;4.17;3.57;;;;;;;23.28;45.79;98169.78;5095005;28;20231;-80
2023/06/01 09:08:43;;;;;;;6.13;4.03;;;;;;;23.49;46.70;98183.41;5094901;28;20221;-80
2023/06/01 09:11:09;;;;;;;5.73;3.90;;;;;;;23.59;47.40;98189.34;5094176;28;20207;-80
2023/06/01 09:13:37;;;;;;;5.07;3.50;;;;;;;23.67;47.10;98186.56;5094898;28;20230;-79
2023/06/01 09:16:04;;;;;;;6.77;4.00;;;;;;;23.81;45.31;98158.72;5094923;28;20248;-80
2023/06/01 09:18:31;;;;;;;4.83;4.23;;;;;;;23.66;42.16;98114.69;5094857;28;20301;-80
2023/06/01 09:21:11;;;;;;;6.73;4.60;;;;;;;23.81;42.14;98118.22;5093914;28;20215;-80
2023/06/01 09:23:38;;;;;;;4.97;3.73;;;;;;;23.81;42.38;98130.88;5094302;28;20319;-80
2023/06/01 09:26:09;;;;;;;6.43;4.30;;;;;;;23.71;41.70;98123.06;5094669;28;20296;-80
2023/06/01 09:28:53;;;;;;;7.53;3.70;;;;;;;23.65;42.25;98123.81;5094513;28;20214;-80
2023/06/01 09:31:40;;;;;;;5.70;3.87;;;;;;;23.80;42.95;98137.31;5093739;28;20284;-80
2023/06/01 09:34:08;;;;;;;6.17;3.73;;;;;;;23.94;43.65;98141.84;5094049;28;20725;-80
2023/06/01 09:36:35;;;;;;;5.53;4.10;;;;;;;24.06;44.96;98164.66;5104755;22;20235;-77
2023/06/01 09:39:04;;;;;;;4.70;4.00;;;;;;;24.26;44.40;98158.44;5073660;28;20215;-76
2023/06/01 09:41:47;;;;;;;8.00;4.27;;;;;;;24.32;41.21;98122.56;5073461;28;20302;-77
2023/06/01 09:44:15;;;;;;;5.90;4.10;;;;;;;24.31;40.87;98112.81;5073934;28;20207;-77
2023/06/01 09:46:48;;;;;;;6.43;4.30;;;;;;;24.32;40.52;98103.66;5073810;28;20559;-77
2023/06/01 09:49:20;;;;;;;5.57;4.17;;;;;;;24.48;43.00;98135.00;5072046;28;20265;-78
2023/06/01 09:51:47;;;;;;;5.50;4.00;;;;;;;24.61;43.58;98143.25;5073939;28;20203;-78
2023/06/01 09:54:23;;;;;;;5.63;4.37;;;;;;;24.70;40.90;98104.28;5073499;28;20227;-78
2023/06/01 09:56:51;;;;;;;6.03;4.13;;;;;;;24.85;44.13;98138.31;5073661;28;20238;-76
2023/06/01 09:59:17;;;;;;;6.53;4.13;;;;;;;24.91;44.78;98159.16;5073167;28;20590;-77
2023/06/01 10:01:48;;;;;;;4.50;3.80;;;;;;;24.95;42.62;98128.00;5073785;28;20207;-77
2023/06/01 10:04:17;;;;;;;6.43;4.15;;;;;;;24.99;41.22;98104.09;5073577;28;20207;-77
2023/06/01 10:06:44;;;;;;;5.28;4.00;;;;;;;25.07;44.75;98153.47;5073323;28;20234;-78
2023/06/01 10:09:18;;;;;;;6.00;4.43;;;;;;;25.17;42.39;98118.78;5072760;28;20204;-76
2023/06/01 10:11:44;;;;;;;6.90;4.30;;;;;;;25.26;41.83;98116.78;5073477;28;20203;-77
2023/06/01 10:14:13;;;;;;;5.13;4.28;;;;;;;25.35;42.74;98129.16;5075731;28;20242;-76
2023/06/01 10:16:40;;;;;;;6.65;4.82;;;;;;;25.35;42.68;98124.56;5078524;28;20338;-77
2023/06/01 10:19:08;;;;;;;4.80;4.20;;;;;;;25.50;41.31;98103.63;5074028;28;20211;-79
2023/06/01 10:21:35;;;;;;;5.75;4.47;;;;;;;25.36;41.52;98096.44;5075365;28;20222;-77
2023/06/01 10:24:02;;;;;;;7.85;4.50;;;;;;;25.31;40.89;98084.56;5073721;28;20246;-77
2023/06/01 10:26:31;;;;;;;6.37;4.13;;;;;;;25.19;42.05;98100.50;5073753;28;20231;-78
2023/06/01 10:28:59;;;;;;;6.97;4.73;;;;;;;25.13;42.17;98112.13;5073212;28;20209;-76
2023/06/01 10:31:40;;;;;;;4.63;4.18;;;;;;;25.13;40.73;98087.78;5072485;28;20216;-76
2023/06/01 10:34:08;;;;;;;4.40;4.00;;;;;;;25.27;41.52;98086.84;5073009;28;20231;-77
2023/06/01 10:37:12;;;;;;;5.43;4.43;;;;;;;25.36;41.35;98096.44;5072344;28;20231;-77
2023/06/01 10:39:39;;;;;;;4.63;3.83;;;;;;;25.57;43.16;98115.31;5072121;28;20203;-77
2023/06/01 10:42:38;;;;;;;4.47;4.07;;;;;;;25.72;43.05;98116.00;5072904;28;20210;-77
2023/06/01 10:45:07;;;;;;;4.88;4.20;;;;;;;25.71;38.23;98046.66;5072820;28;20570;-77
2023/06/01 10:47:49;;;;;;;5.60;4.20;;;;;;;25.71;37.21;98024.16;5072640;28;20238;-77
2023/06/01 10:50:17;;;;;;;5.03;4.03;;;;;;;25.45;36.84;98019.50;5071988;28;20250;-77
2023/06/01 10:52:43;;;;;;;5.13;4.30;;;;;;;25.65;38.50;98052.88;5072593;28;20207;-77
2023/06/01 10:55:24;;;;;;;5.35;3.75;;;;;;;25.55;39.08;98052.41;5072450;28;20601;-77
2023/06/01 10:57:51;;;;;;;4.95;3.88;;;;;;;25.55;39.79;98057.00;5072471;28;20231;-77
2023/06/01 11:00:20;;;;;;;5.78;4.18;;;;;;;25.63;38.91;98044.13;5071335;28;20301;-77
2023/06/01 11:02:54;;;;;;;4.93;4.00;;;;;;;25.72;39.33;98053.75;5072445;28;20257;-77
2023/06/01 11:05:51;;;;;;;5.82;3.90;;;;;;;25.89;37.65;98022.56;5072781;28;20273;-77
2023/06/01 11:08:51;;;;;;;5.65;4.28;;;;;;;25.94;37.36;98025.53;5071993;28;20742;-76
2023/06/01 11:11:20;;;;;;;4.90;4.30;;;;;;;25.96;39.02;98034.28;5071591;28;20215;-77
2023/06/01 11:14:11;;;;;;;7.25;4.15;;;;;;;26.08;39.13;98038.06;5072098;28;20266;-77
2023/06/01 11:16:37;;;;;;;5.97;4.28;;;;;;;26.08;38.30;98029.09;5072276;28;20254;-77
2023/06/01 11:19:07;;;;;;;7.37;4.10;;;;;;;26.12;40.28;98062.84;5071966;28;20219;-76
2023/06/01 11:21:40;;;;;;;5.55;3.97;;;;;;;26.02;41.15;98071.38;5071969;28;20212;-78
2023/06/01 11:24:10;;;;;;;5.38;4.03;;;;;;;26.04;39.57;98047.63;5072003;28;20207;-78
2023/06/01 11:26:39;;;;;;;5.47;4.18;;;;;;;25.98;41.28;98063.88;5071991;28;20284;-76
2023/06/01 11:29:09;;;;;;;4.55;4.05;;;;;;;25.96;40.44;98045.09;5071877;28;20211;-77
2023/06/01 11:31:37;;;;;;;6.40;4.65;;;;;;;26.01;39.63;98056.16;5071777;28;20218;-77
2023/06/01 11:34:06;;;;;;;7.70;4.38;;;;;;;25.93;38.04;98021.16;5071805;28;20648;-76
2023/06/01 11:36:40;;;;;;;4.20;3.80;;;;;;;26.00;37.58;98013.88;5071538;28;20239;-78
2023/06/01 11:39:20;;;;;;;5.20;3.70;;;;;;;26.14;38.29;98020.97;5071148;28;20211;-77
2023/06/01 11:41:47;;;;;;;7.38;4.18;;;;;;;26.46;37.00;98003.91;5071813;28;20221;-78